Time;durP1;ratioP1;P1;durP2;ratioP2;P2;SDS_P1;SDS_P2;PMS_P1;PMS_P2;Temp;Humidity;BMP_temperature;BMP_pressure;BME280_temperature;BME280_humidity;BME280_pressure;Samples;Min_cycle;Max_cycle;Signal;HPM_P1;HPM_P2
2023/04/14 00:02:15;;;;;;;11.03;3.73;;;;;;;-150.27;100.00;61272.81;5037040;29;20033;-77
2023/04/14 00:04:52;;;;;;;10.80;3.33;;;;;;;-150.27;100.00;61272.81;5037574;29;20040;-77
2023/04/14 00:07:24;;;;;;;8.73;3.07;;;;;;;-150.27;100.00;61272.81;5054569;29;20029;-77
2023/04/14 00:09:55;;;;;;;9.23;3.27;;;;;;;-150.27;100.00;61272.81;5054159;29;20033;-78
2023/04/14 00:12:26;;;;;;;10.03;4.13;;;;;;;-150.27;100.00;61272.81;5053878;29;20506;-77
2023/04/14 00:14:58;;;;;;;10.40;3.63;;;;;;;-150.27;100.00;61272.81;5053162;29;20053;-77
2023/04/14 00:17:29;;;;;;;9.00;3.43;;;;;;;-150.27;100.00;61272.81;5053747;29;20132;-77
2023/04/14 00:20:01;;;;;;;12.87;3.80;;;;;;;-150.27;100.00;61272.81;5037626;29;20125;-77
2023/04/14 00:22:33;;;;;;;8.37;3.40;;;;;;;-150.27;100.00;61272.81;5037153;29;20085;-77
2023/04/14 00:25:05;;;;;;;7.00;3.27;;;;;;;-150.27;100.00;61272.81;5054202;29;20079;-77
2023/04/14 00:27:36;;;;;;;8.77;3.80;;;;;;;-150.27;100.00;61272.81;5053890;29;20367;-77
2023/04/14 00:30:08;;;;;;;8.17;2.97;;;;;;;-150.27;100.00;61272.81;5053022;29;20082;-77
2023/04/14 00:32:39;;;;;;;11.30;3.63;;;;;;;-150.27;100.00;61272.81;5053705;29;20464;-76
2023/04/14 00:35:11;;;;;;;11.10;3.80;;;;;;;-150.27;100.00;61272.81;5038267;29;20482;-77
2023/04/14 00:37:42;;;;;;;12.23;3.77;;;;;;;-150.27;100.00;61272.81;5053909;29;20054;-77
2023/04/14 00:40:13;;;;;;;9.53;3.33;;;;;;;-150.27;100.00;61272.81;5052816;29;20037;-77
2023/04/14 00:42:45;;;;;;;9.77;4.20;;;;;;;-150.27;100.00;61272.81;5053398;29;20494;-76
2023/04/14 00:45:17;;;;;;;10.70;4.63;;;;;;;-150.27;100.00;61272.81;5053023;29;20057;-76
2023/04/14 00:47:49;;;;;;;9.17;3.33;;;;;;;-150.27;100.00;61272.81;5054083;29;20044;-76
2023/04/14 00:50:20;;;;;;;9.60;3.60;;;;;;;-150.27;100.00;61272.81;5053047;29;20112;-76
2023/04/14 00:52:52;;;;;;;9.70;4.47;;;;;;;-150.27;100.00;61272.81;5056801;29;20119;-77
2023/04/14 00:55:24;;;;;;;10.07;3.97;;;;;;;-150.27;100.00;61272.81;5057232;29;20064;-77
2023/04/14 00:57:55;;;;;;;7.60;3.50;;;;;;;-150.27;100.00;61272.81;5057574;29;20033;-77
2023/04/14 01:00:27;;;;;;;12.50;4.50;;;;;;;-150.27;100.00;61272.81;5056679;29;20490;-77
2023/04/14 01:02:59;;;;;;;16.83;4.20;;;;;;;-150.27;100.00;61272.81;5057399;29;20038;-77
2023/04/14 01:05:31;;;;;;;9.17;3.73;;;;;;;-150.27;100.00;61272.81;5057602;29;20154;-77
2023/04/14 01:08:03;;;;;;;6.03;3.13;;;;;;;-150.27;100.00;61272.81;5040495;29;20603;-77
2023/04/14 01:10:44;;;;;;;12.77;4.60;;;;;;;-150.27;100.00;61272.81;5057578;29;20053;-76
2023/04/14 01:13:32;;;;;;;9.63;5.00;;;;;;;-150.27;100.00;61272.81;5056260;29;20395;-76
2023/04/14 01:16:13;;;;;;;7.37;4.00;;;;;;;-150.27;100.00;61272.81;5057151;29;20036;-76
2023/04/14 01:18:56;;;;;;;11.33;4.33;;;;;;;-150.27;100.00;61272.81;5040062;29;20089;-76
2023/04/14 01:21:34;;;;;;;11.00;4.90;;;;;;;-150.27;100.00;61272.81;5057273;29;20418;-77
2023/04/14 01:24:35;;;;;;;6.57;3.63;;;;;;;-150.27;100.00;61272.81;5056758;29;20774;-77
2023/04/14 01:27:27;;;;;;;14.57;4.37;;;;;;;-150.27;100.00;61272.81;5057106;29;20117;-77
2023/04/14 01:30:13;;;;;;;10.97;3.93;;;;;;;-150.27;100.00;61272.81;5045924;29;20078;-77
2023/04/14 01:32:48;;;;;;;11.43;4.27;;;;;;;-150.27;100.00;61272.81;5056775;29;20356;-76
2023/04/14 01:35:30;;;;;;;9.23;3.97;;;;;;;-150.27;100.00;61272.81;5058668;29;20057;-76
2023/04/14 01:38:21;;;;;;;11.87;3.50;;;;;;;-150.27;100.00;61272.81;5055504;29;20044;-76
2023/04/14 01:40:56;;;;;;;11.83;3.77;;;;;;;-150.27;100.00;61272.81;5040181;29;20033;-76
2023/04/14 01:43:30;;;;;;;10.13;4.60;;;;;;;-150.27;100.00;61272.81;5055970;29;20037;-77
2023/04/14 01:46:06;;;;;;;11.88;3.83;;;;;;;-150.27;100.00;61272.81;5056740;29;20029;-77
2023/04/14 01:48:40;;;;;;;8.17;3.93;;;;;;;-150.27;100.00;61272.81;5056301;29;20030;-77
2023/04/14 01:51:13;;;;;;;7.40;3.70;;;;;;;-150.27;100.00;61272.81;5056585;29;20029;-76
2023/04/14 01:53:46;;;;;;;10.13;3.57;;;;;;;-150.27;100.00;61272.81;5056327;29;20479;-77
2023/04/14 01:56:19;;;;;;;10.67;3.87;;;;;;;-150.27;100.00;61272.81;5056697;29;20044;-76
2023/04/14 01:58:54;;;;;;;7.63;3.53;;;;;;;-150.27;100.00;61272.81;5047352;29;20479;-77
2023/04/14 02:01:26;;;;;;;;;;;;;;;-150.27;100.00;61272.81;5035327;29;20025;-77
2023/04/14 02:04:00;;;;;;;12.20;3.90;;;;;;;-150.27;100.00;61272.81;5054143;29;19951;-77
2023/04/14 02:06:34;;;;;;;8.63;3.33;;;;;;;-150.27;100.00;61272.81;5048043;29;20036;-76
2023/04/14 02:09:09;;;;;;;9.30;3.53;;;;;;;-150.27;100.00;61272.81;5045928;29;20024;-77
2023/04/14 02:11:42;;;;;;;;;;;;;;;-150.27;100.00;61272.81;5035112;29;20041;-77
2023/04/14 02:14:15;;;;;;;7.23;2.73;;;;;;;-150.27;100.00;61272.81;5038247;29;20370;-77
2023/04/14 02:16:49;;;;;;;8.32;3.40;;;;;;;-150.27;100.00;61272.81;5055825;29;20037;-76
2023/04/14 02:19:21;;;;;;;11.13;3.67;;;;;;;-150.27;100.00;61272.81;5055947;29;20082;-76
2023/04/14 02:21:55;;;;;;;8.70;3.43;;;;;;;-150.27;100.00;61272.81;5056470;29;20107;-76
2023/04/14 02:24:27;;;;;;;9.70;3.63;;;;;;;-150.27;100.00;61272.81;5055671;29;20034;-77
2023/04/14 02:27:15;;;;;;;15.70;4.07;;;;;;;-150.27;100.00;61272.81;5033406;29;20486;-77
2023/04/14 02:29:52;;;;;;;10.07;3.53;;;;;;;-150.27;100.00;61272.81;5055148;29;20066;-77
2023/04/14 02:32:26;;;;;;;10.87;3.67;;;;;;;-150.27;100.00;61272.81;5055074;29;20098;-77
2023/04/14 02:35:05;;;;;;;7.88;3.28;;;;;;;-150.27;100.00;61272.81;5039502;29;20115;-77
2023/04/14 02:37:41;;;;;;;10.23;3.77;;;;;;;-150.27;100.00;61272.81;5055286;29;20060;-77
2023/04/14 02:40:23;;;;;;;10.97;5.07;;;;;;;-150.27;100.00;61272.81;5055727;29;20033;-77
2023/04/14 02:43:10;;;;;;;7.30;3.13;;;;;;;-150.27;100.00;61272.81;5055620;29;20033;-77
2023/04/14 02:45:47;;;;;;;13.70;4.13;;;;;;;-150.27;100.00;61272.81;5050890;29;20037;-77
2023/04/14 02:48:22;;;;;;;9.63;3.63;;;;;;;-150.27;100.00;61272.81;5019740;29;20037;-77
2023/04/14 02:50:55;;;;;;;9.33;3.20;;;;;;;-150.27;100.00;61272.81;5036517;29;20082;-78
2023/04/14 02:53:26;;;;;;;15.53;4.33;;;;;;;-150.27;100.00;61272.81;5035782;29;20048;-78
2023/04/14 02:55:59;;;;;;;10.10;3.73;;;;;;;-150.27;100.00;61272.81;5020121;29;20026;-78
2023/04/14 02:58:31;;;;;;;9.47;4.50;;;;;;;-150.27;100.00;61272.81;5018030;29;20714;-78
2023/04/14 03:01:02;;;;;;;8.23;3.70;;;;;;;-150.27;100.00;61272.81;5040854;29;20047;-78
2023/04/14 03:03:36;;;;;;;11.27;3.70;;;;;;;-150.27;100.00;61272.81;5036210;29;20025;-78
2023/04/14 03:06:07;;;;;;;9.40;3.67;;;;;;;-150.27;100.00;61272.81;5019616;29;20045;-78
2023/04/14 03:08:40;;;;;;;10.87;4.27;;;;;;;-150.27;100.00;61272.81;5035927;29;20671;-79
2023/04/14 03:11:13;;;;;;;8.73;4.10;;;;;;;-150.27;100.00;61272.81;5019059;29;20121;-78
2023/04/14 03:13:47;;;;;;;11.50;4.50;;;;;;;-150.27;100.00;61272.81;5035042;29;20771;-78
2023/04/14 03:16:20;;;;;;;8.93;3.40;;;;;;;-150.27;100.00;61272.81;5034327;29;20029;-78
2023/04/14 03:18:53;;;;;;;9.93;3.40;;;;;;;-150.27;100.00;61272.81;5019760;29;20681;-78
2023/04/14 03:21:25;;;;;;;8.80;3.70;;;;;;;-150.27;100.00;61272.81;5036089;29;20122;-78
2023/04/14 03:23:58;;;;;;;6.77;3.50;;;;;;;-150.27;100.00;61272.81;5036093;29;20368;-78
2023/04/14 03:26:31;;;;;;;11.03;3.63;;;;;;;-150.27;100.00;61272.81;5035322;29;20521;-78
2023/04/14 03:29:05;;;;;;;10.57;4.77;;;;;;;-150.27;100.00;61272.81;5034694;29;20067;-78
2023/04/14 03:31:37;;;;;;;8.17;3.20;;;;;;;-150.27;100.00;61272.81;5035570;29;20060;-78
2023/04/14 03:34:14;;;;;;;11.47;3.87;;;;;;;-150.27;100.00;61272.81;5043337;29;20390;-78
2023/04/14 03:36:47;;;;;;;10.23;4.17;;;;;;;-150.27;100.00;61272.81;5054520;29;20044;-78
2023/04/14 03:39:21;;;;;;;11.97;4.53;;;;;;;-150.27;100.00;61272.81;5054253;29;20558;-78
2023/04/14 03:41:58;;;;;;;15.43;4.77;;;;;;;-150.27;100.00;61272.81;5054757;29;20032;-77
2023/04/14 03:44:34;;;;;;;13.40;4.87;;;;;;;-150.27;100.00;61272.81;5053622;29;20531;-77
2023/04/14 03:47:07;;;;;;;14.43;5.93;;;;;;;-150.27;100.00;61272.81;5045828;29;20063;-77
2023/04/14 03:49:42;;;;;;;11.70;4.47;;;;;;;-150.27;100.00;61272.81;5035573;29;20030;-78
2023/04/14 03:52:15;;;;;;;14.60;4.97;;;;;;;-150.27;100.00;61272.81;5034868;29;20041;-77
2023/04/14 03:54:49;;;;;;;14.57;4.63;;;;;;;-150.27;100.00;61272.81;5019138;29;20029;-77
2023/04/14 03:57:22;;;;;;;13.10;4.53;;;;;;;-150.27;100.00;61272.81;5034745;29;20025;-76
2023/04/14 03:59:55;;;;;;;21.70;6.30;;;;;;;-150.27;100.00;61272.81;5018021;29;20397;-77
2023/04/14 04:02:29;;;;;;;15.13;4.30;;;;;;;-150.27;100.00;61272.81;5037149;29;20030;-78
2023/04/14 04:05:02;;;;;;;12.70;4.95;;;;;;;-150.27;100.00;61272.81;5035417;29;20105;-77
2023/04/14 04:07:34;;;;;;;11.80;4.10;;;;;;;-150.27;100.00;61272.81;5054192;29;20480;-77
2023/04/14 04:10:07;;;;;;;10.57;3.70;;;;;;;-150.27;100.00;61272.81;5054184;29;20052;-77
2023/04/14 04:12:41;;;;;;;13.97;4.93;;;;;;;-150.27;100.00;61272.81;5053604;29;20558;-77
2023/04/14 04:15:12;;;;;;;13.32;3.83;;;;;;;-150.27;100.00;61272.81;5052243;29;20029;-77
2023/04/14 04:17:46;;;;;;;13.27;5.03;;;;;;;-150.27;100.00;61272.81;5051207;29;20126;-77
2023/04/14 04:20:18;;;;;;;16.15;3.97;;;;;;;-150.27;100.00;61272.81;5037359;29;20029;-77
2023/04/14 04:22:51;;;;;;;10.70;3.90;;;;;;;-150.27;100.00;61272.81;5053985;29;20026;-77
2023/04/14 04:25:22;;;;;;;6.50;3.37;;;;;;;-150.27;100.00;61272.81;5037947;29;20090;-77
2023/04/14 04:27:54;;;;;;;10.37;4.70;;;;;;;-150.27;100.00;61272.81;5020574;29;20434;-78
2023/04/14 04:30:28;;;;;;;17.03;5.00;;;;;;;-150.27;100.00;61272.81;5024592;29;20048;-77
2023/04/14 04:33:02;;;;;;;11.10;4.33;;;;;;;-150.27;100.00;61272.81;5036844;29;20941;-77
2023/04/14 04:35:34;;;;;;;;;;;;;;;-150.27;100.00;61272.81;5043048;29;20034;-77
2023/04/14 04:38:07;;;;;;;11.50;4.30;;;;;;;-150.27;100.00;61272.81;5056681;29;19939;-77
2023/04/14 04:40:38;;;;;;;16.53;5.23;;;;;;;-150.27;100.00;61272.81;5046561;29;20037;-78
2023/04/14 04:43:09;;;;;;;10.20;3.80;;;;;;;-150.27;100.00;61272.81;5040075;29;20034;-76
2023/04/14 04:46:11;;;;;;;11.03;4.27;;;;;;;-150.27;100.00;61272.81;5057520;29;20021;-77
2023/04/14 04:48:43;;;;;;;11.67;4.53;;;;;;;-150.27;100.00;61272.81;5058062;29;20466;-77
2023/04/14 04:51:14;;;;;;;14.37;4.60;;;;;;;-150.27;100.00;61272.81;5057172;29;20037;-77
2023/04/14 04:53:45;;;;;;;14.27;5.83;;;;;;;-150.27;100.00;61272.81;5059335;29;20121;-78
2023/04/14 04:56:17;;;;;;;12.37;4.90;;;;;;;-150.27;100.00;61272.81;5059780;29;20040;-77
2023/04/14 04:58:49;;;;;;;8.57;4.13;;;;;;;-150.27;100.00;61272.81;5057514;29;20428;-77
2023/04/14 05:01:20;;;;;;;9.97;4.63;;;;;;;-150.27;100.00;61272.81;5057491;29;20022;-77
2023/04/14 05:03:52;;;;;;;10.10;4.27;;;;;;;-150.27;100.00;61272.81;5057431;29;20425;-76
2023/04/14 05:06:23;;;;;;;11.80;4.23;;;;;;;-150.27;100.00;61272.81;5057286;29;20471;-77
2023/04/14 05:08:55;;;;;;;10.77;3.90;;;;;;;-150.27;100.00;61272.81;5040145;29;20030;-77
2023/04/14 05:11:26;;;;;;;11.90;4.57;;;;;;;-150.27;100.00;61272.81;5056856;29;20025;-77
2023/04/14 05:13:58;;;;;;;11.20;4.13;;;;;;;-150.27;100.00;61272.81;5056410;29;20081;-77
2023/04/14 05:16:30;;;;;;;16.37;4.87;;;;;;;-150.27;100.00;61272.81;5056461;29;20038;-77
2023/04/14 05:19:02;;;;;;;13.97;5.20;;;;;;;-150.27;100.00;61272.81;5057356;29;20475;-77
2023/04/14 05:21:34;;;;;;;10.87;3.53;;;;;;;-150.27;100.00;61272.81;5056399;29;20022;-76
2023/04/14 05:24:07;;;;;;;11.30;4.00;;;;;;;-150.27;100.00;61272.81;5056966;29;20085;-76
2023/04/14 05:26:39;;;;;;;11.43;4.50;;;;;;;-150.27;100.00;61272.81;5052394;29;20084;-74
2023/04/14 05:29:10;;;;;;;11.33;4.00;;;;;;;-150.27;100.00;61272.81;5028871;29;20108;-75
2023/04/14 05:31:41;;;;;;;13.47;4.03;;;;;;;-150.27;100.00;61272.81;5049914;29;20062;-75
2023/04/14 05:34:13;;;;;;;14.60;4.80;;;;;;;-150.27;100.00;61272.81;5046230;29;20202;-75
2023/04/14 05:36:45;;;;;;;9.70;3.87;;;;;;;-150.27;100.00;61272.81;5040637;29;20335;-76
2023/04/14 05:39:17;;;;;;;15.23;5.50;;;;;;;-150.27;100.00;61272.81;5055505;29;20035;-75
2023/04/14 05:41:48;;;;;;;16.27;5.63;;;;;;;-150.27;100.00;61272.81;5051192;29;20645;-77
2023/04/14 05:44:19;;;;;;;10.77;4.73;;;;;;;-150.27;100.00;61272.81;5028517;29;20505;-76
2023/04/14 05:46:51;;;;;;;10.67;3.87;;;;;;;-150.27;100.00;61272.81;5051510;29;20618;-76
2023/04/14 05:49:22;;;;;;;8.97;3.83;;;;;;;-150.27;100.00;61272.81;5043932;29;20663;-76
2023/04/14 05:51:54;;;;;;;13.70;4.60;;;;;;;-150.27;100.00;61272.81;5038870;29;20041;-77
2023/04/14 05:54:26;;;;;;;13.33;4.30;;;;;;;-150.27;100.00;61272.81;5046664;29;20130;-77
2023/04/14 05:56:57;;;;;;;14.93;4.73;;;;;;;-150.27;100.00;61272.81;5045427;29;20044;-76
2023/04/14 05:59:28;;;;;;;10.30;5.17;;;;;;;-150.27;100.00;61272.81;5045271;29;20057;-77
2023/04/14 06:02:04;;;;;;;11.00;4.43;;;;;;;-150.27;100.00;61272.81;5035576;29;20045;-76
2023/04/14 06:04:35;;;;;;;14.87;4.57;;;;;;;-150.27;100.00;61272.81;5034954;29;20030;-76
2023/04/14 06:07:06;;;;;;;11.73;4.60;;;;;;;-150.27;100.00;61272.81;5035366;29;20026;-76
2023/04/14 06:09:37;;;;;;;10.80;4.20;;;;;;;-150.27;100.00;61272.81;5035316;29;20029;-76
2023/04/14 06:12:09;;;;;;;12.83;4.17;;;;;;;-150.27;100.00;61272.81;5018384;29;20030;-77
2023/04/14 06:14:40;;;;;;;9.37;4.10;;;;;;;-150.27;100.00;61272.81;5042634;29;20102;-76
2023/04/14 06:17:12;;;;;;;11.37;4.10;;;;;;;-150.27;100.00;61272.81;5037008;29;20431;-77
2023/04/14 06:19:45;;;;;;;14.37;4.67;;;;;;;-150.27;100.00;61272.81;5054523;29;20082;-77
2023/04/14 06:22:18;;;;;;;17.00;4.13;;;;;;;-150.27;100.00;61272.81;5053322;29;20072;-76
2023/04/14 06:24:49;;;;;;;11.87;4.17;;;;;;;-150.27;100.00;61272.81;5054647;29;20128;-76
2023/04/14 06:27:21;;;;;;;10.33;4.03;;;;;;;-150.27;100.00;61272.81;5053024;29;20112;-76
2023/04/14 06:29:52;;;;;;;11.90;4.37;;;;;;;-150.27;100.00;61272.81;5042717;29;20033;-76
2023/04/14 06:32:23;;;;;;;13.37;4.73;;;;;;;-150.27;100.00;61272.81;5044803;29;20025;-75
2023/04/14 06:34:55;;;;;;;13.23;4.90;;;;;;;-150.27;100.00;61272.81;5053641;29;20092;-76
2023/04/14 06:37:26;;;;;;;11.13;4.67;;;;;;;-150.27;100.00;61272.81;5054495;29;20033;-75
2023/04/14 06:39:57;;;;;;;16.77;3.90;;;;;;;-150.27;100.00;61272.81;5054236;29;20049;-76
2023/04/14 06:42:28;;;;;;;7.93;3.77;;;;;;;-150.27;100.00;61272.81;5052984;29;20033;-76
2023/04/14 06:45:00;;;;;;;11.73;3.80;;;;;;;-150.27;100.00;61272.81;5054496;29;20037;-76
2023/04/14 06:47:31;;;;;;;11.67;4.63;;;;;;;-150.27;100.00;61272.81;5036658;29;20600;-77
2023/04/14 06:50:03;;;;;;;8.80;3.90;;;;;;;-150.27;100.00;61272.81;5046341;29;20434;-77
2023/04/14 06:52:34;;;;;;;12.97;4.17;;;;;;;-150.27;100.00;61272.81;5035461;29;20026;-77
2023/04/14 06:55:05;;;;;;;7.20;3.77;;;;;;;-150.27;100.00;61272.81;5038241;29;20079;-78
2023/04/14 06:57:37;;;;;;;10.80;4.20;;;;;;;-150.27;100.00;61272.81;5051861;29;20376;-77
2023/04/14 07:00:09;;;;;;;10.60;3.50;;;;;;;-150.27;100.00;61272.81;5053423;29;20132;-77
2023/04/14 07:02:40;;;;;;;10.33;3.57;;;;;;;-150.27;100.00;61272.81;5052456;29;20672;-76
2023/04/14 07:05:12;;;;;;;14.63;4.43;;;;;;;-150.27;100.00;61272.81;5051509;29;20087;-76
2023/04/14 07:07:43;;;;;;;11.23;4.43;;;;;;;-150.27;100.00;61272.81;5022841;29;20064;-77
2023/04/14 07:10:15;;;;;;;12.07;3.93;;;;;;;-150.27;100.00;61272.81;5033494;29;20655;-77
2023/04/14 07:12:46;;;;;;;9.17;2.90;;;;;;;-150.27;100.00;61272.81;5051256;29;20037;-77
2023/04/14 07:15:17;;;;;;;10.83;3.20;;;;;;;-150.27;100.00;61272.81;5052785;29;20510;-76
2023/04/14 07:17:49;;;;;;;9.50;2.80;;;;;;;-150.27;100.00;61272.81;5052721;29;20040;-76
2023/04/14 07:20:20;;;;;;;12.87;3.57;;;;;;;-150.27;100.00;61272.81;5035606;29;20044;-76
2023/04/14 07:22:51;;;;;;;9.33;3.93;;;;;;;-150.27;100.00;61272.81;5053307;29;20022;-76
2023/04/14 07:25:23;;;;;;;12.30;4.80;;;;;;;-150.27;100.00;61272.81;5052526;29;20695;-77
2023/04/14 07:27:54;;;;;;;11.13;5.17;;;;;;;-150.27;100.00;61272.81;5052251;29;20070;-76
2023/04/14 07:30:26;;;;;;;8.10;3.53;;;;;;;-150.27;100.00;61272.81;5051974;29;20175;-77
2023/04/14 07:32:57;;;;;;;9.83;3.43;;;;;;;-150.27;100.00;61272.81;5053613;29;20026;-77
2023/04/14 07:35:28;;;;;;;8.10;3.37;;;;;;;-150.27;100.00;61272.81;5052546;29;20034;-77
2023/04/14 07:38:00;;;;;;;14.67;4.07;;;;;;;-150.27;100.00;61272.81;5053917;29;20125;-77
2023/04/14 07:40:31;;;;;;;12.40;3.30;;;;;;;-150.27;100.00;61272.81;5053076;29;20129;-77
2023/04/14 07:43:02;;;;;;;8.97;2.90;;;;;;;-150.27;100.00;61272.81;5051998;29;20029;-75
2023/04/14 07:45:34;;;;;;;8.17;3.77;;;;;;;-150.27;100.00;61272.81;5053337;29;20072;-75
2023/04/14 07:48:05;;;;;;;6.83;2.87;;;;;;;-150.27;100.00;61272.81;5020841;29;20038;-76
2023/04/14 07:50:36;;;;;;;8.30;2.33;;;;;;;-150.27;100.00;61272.81;5052612;29;20037;-76
2023/04/14 07:53:08;;;;;;;5.80;2.70;;;;;;;-150.27;100.00;61272.81;5052940;29;20053;-76
2023/04/14 07:55:39;;;;;;;8.57;3.60;;;;;;;-150.27;100.00;61272.81;5048474;29;20029;-76
2023/04/14 07:58:11;;;;;;;8.37;3.17;;;;;;;-150.27;100.00;61272.81;5051987;29;20093;-76
2023/04/14 08:00:42;;;;;;;8.70;3.27;;;;;;;-150.27;100.00;61272.81;5052665;29;20025;-77
2023/04/14 08:03:14;;;;;;;7.27;3.40;;;;;;;-150.27;100.00;61272.81;5052399;29;20409;-77
2023/04/14 08:05:45;;;;;;;8.33;2.40;;;;;;;-150.27;100.00;61272.81;5053086;29;20065;-77
2023/04/14 08:08:17;;;;;;;9.17;2.43;;;;;;;-150.27;100.00;61272.81;5051184;29;20094;-76
2023/04/14 08:10:48;;;;;;;7.90;2.97;;;;;;;-150.27;100.00;61272.81;5052529;29;20025;-75
2023/04/14 08:13:19;;;;;;;6.50;2.10;;;;;;;-150.27;100.00;61272.81;5050482;29;20562;-76
2023/04/14 08:15:51;;;;;;;5.67;2.00;;;;;;;-150.27;100.00;61272.81;5034934;29;20029;-76
2023/04/14 08:18:22;;;;;;;7.43;2.80;;;;;;;-150.27;100.00;61272.81;5050642;29;20050;-76
2023/04/14 08:20:53;;;;;;;7.10;2.70;;;;;;;-150.27;100.00;61272.81;5051857;29;20439;-76
2023/04/14 08:23:25;;;;;;;4.50;1.77;;;;;;;-150.27;100.00;61272.81;5051795;29;20482;-77
2023/04/14 08:25:56;;;;;;;4.77;2.43;;;;;;;-150.27;100.00;61272.81;5050263;29;20021;-76
2023/04/14 08:28:28;;;;;;;5.97;2.17;;;;;;;-150.27;100.00;61272.81;5050153;29;20074;-76
2023/04/14 08:30:59;;;;;;;6.82;2.33;;;;;;;-150.27;100.00;61272.81;5051719;29;20032;-76
2023/04/14 08:33:32;;;;;;;6.35;2.70;;;;;;;-150.27;100.00;61272.81;5050110;29;20069;-75
2023/04/14 08:36:04;;;;;;;7.10;2.08;;;;;;;-150.27;100.00;61272.81;5051073;29;20116;-77
2023/04/14 08:38:35;;;;;;;4.65;2.03;;;;;;;-150.27;100.00;61272.81;5033422;29;20025;-75
2023/04/14 08:41:08;;;;;;;11.10;2.88;;;;;;;-150.27;100.00;61272.81;5048629;29;20089;-77
2023/04/14 08:43:39;;;;;;;7.25;2.67;;;;;;;-150.27;100.00;61272.81;5052760;29;20033;-75
2023/04/14 08:46:12;;;;;;;7.00;2.40;;;;;;;-150.27;100.00;61272.81;5050209;29;20657;-76
2023/04/14 08:48:48;;;;;;;5.47;2.20;;;;;;;-150.27;100.00;61272.81;5036129;29;20619;-75
2023/04/14 08:51:30;;;;;;;6.15;2.60;;;;;;;-150.27;100.00;61272.81;5048592;29;20057;-75
2023/04/14 08:54:07;;;;;;;4.30;1.85;;;;;;;-150.27;100.00;61272.81;5037311;29;20060;-75
2023/04/14 08:56:40;;;;;;;4.65;1.65;;;;;;;-150.27;100.00;61272.81;5053815;29;20037;-75
2023/04/14 08:59:12;;;;;;;5.35;1.60;;;;;;;-150.27;100.00;61272.81;5053225;29;20531;-75
2023/04/14 09:01:45;;;;;;;4.55;1.63;;;;;;;-150.27;100.00;61272.81;5052221;29;20052;-76
2023/04/14 09:04:19;;;;;;;5.00;1.50;;;;;;;-150.27;100.00;61272.81;5052820;29;20025;-77
2023/04/14 09:06:51;;;;;;;7.88;1.58;;;;;;;-150.27;100.00;61272.81;5053146;29;20037;-75
2023/04/14 09:09:23;;;;;;;7.10;1.77;;;;;;;-150.27;100.00;61272.81;5052132;29;20028;-76
2023/04/14 09:11:55;;;;;;;5.47;1.58;;;;;;;-150.27;100.00;61272.81;5053347;29;20022;-75
2023/04/14 09:14:27;;;;;;;4.90;2.05;;;;;;;-150.27;100.00;61272.81;5057232;29;20071;-75
2023/04/14 09:16:59;;;;;;;9.15;2.25;;;;;;;-150.27;100.00;61272.81;5056714;29;20033;-74
2023/04/14 09:19:31;;;;;;;6.25;2.20;;;;;;;-150.27;100.00;61272.81;5056313;29;20032;-75
2023/04/14 09:22:03;;;;;;;6.35;1.67;;;;;;;-150.27;100.00;61272.81;5055543;29;20033;-76
2023/04/14 09:24:34;;;;;;;7.30;2.17;;;;;;;-150.27;100.00;61272.81;5055487;29;20037;-75
2023/04/14 09:27:06;;;;;;;8.15;2.17;;;;;;;-150.27;100.00;61272.81;5056242;29;20699;-74
2023/04/14 09:29:39;;;;;;;3.10;1.40;;;;;;;-150.27;100.00;61272.81;5056281;29;20036;-75
2023/04/14 09:32:11;;;;;;;5.32;1.92;;;;;;;-150.27;100.00;61272.81;5056242;29;20032;-76
2023/04/14 09:34:53;;;;;;;7.93;2.60;;;;;;;-150.27;100.00;61272.81;5052975;29;20029;-76
2023/04/14 09:37:25;;;;;;;4.55;1.75;;;;;;;-150.27;100.00;61272.81;5042712;29;20026;-76
2023/04/14 09:39:56;;;;;;;4.05;1.70;;;;;;;-150.27;100.00;61272.81;5057493;29;20119;-76
2023/04/14 09:42:41;;;;;;;3.90;1.83;;;;;;;-150.27;100.00;61272.81;5056479;29;20038;-76
2023/04/14 09:45:13;;;;;;;8.50;1.60;;;;;;;-150.27;100.00;61272.81;5039531;29;20025;-77
2023/04/14 09:47:44;;;;;;;5.97;2.20;;;;;;;-150.27;100.00;61272.81;5039069;29;20423;-77
2023/04/14 09:50:15;;;;;;;4.93;1.60;;;;;;;-150.27;100.00;61272.81;5038072;29;20022;-76
2023/04/14 09:52:48;;;;;;;8.90;1.95;;;;;;;-150.27;100.00;61272.81;5055694;29;20033;-76
2023/04/14 09:55:19;;;;;;;4.78;1.60;;;;;;;-150.27;100.00;61272.81;5055820;29;20037;-76
2023/04/14 09:57:51;;;;;;;7.10;1.92;;;;;;;-150.27;100.00;61272.81;5055359;29;20080;-76
2023/04/14 10:00:23;;;;;;;5.28;1.38;;;;;;;-150.27;100.00;61272.81;5054850;29;20036;-76
2023/04/14 10:02:57;;;;;;;5.10;1.85;;;;;;;-150.27;100.00;61272.81;5038855;29;20052;-76
2023/04/14 10:05:28;;;;;;;4.57;1.92;;;;;;;-150.27;100.00;61272.81;5054477;29;20036;-76
2023/04/14 10:08:04;;;;;;;6.15;1.75;;;;;;;-150.27;100.00;61272.81;5055506;29;20025;-76
2023/04/14 10:10:35;;;;;;;5.15;1.65;;;;;;;-150.27;100.00;61272.81;5038383;29;20099;-76
2023/04/14 10:13:07;;;;;;;6.68;1.77;;;;;;;-150.27;100.00;61272.81;5054962;29;20428;-76
2023/04/14 10:15:38;;;;;;;4.05;1.63;;;;;;;-150.27;100.00;61272.81;5054898;29;20025;-77
2023/04/14 10:18:09;;;;;;;7.40;2.20;;;;;;;-150.27;100.00;61272.81;5054337;29;20029;-76
2023/04/14 10:20:41;;;;;;;6.05;1.95;;;;;;;-150.27;100.00;61272.81;5037894;29;20026;-78
2023/04/14 10:23:13;;;;;;;5.63;2.30;;;;;;;-150.27;100.00;61272.81;5037934;29;20105;-76
2023/04/14 10:25:46;;;;;;;4.43;1.90;;;;;;;-150.27;100.00;61272.81;5054625;29;20462;-77
2023/04/14 10:28:17;;;;;;;7.60;2.35;;;;;;;-150.27;100.00;61272.81;5054074;29;20164;-78
2023/04/14 10:30:51;;;;;;;6.00;1.98;;;;;;;-150.27;100.00;61272.81;5055166;29;20111;-75
2023/04/14 10:33:23;;;;;;;4.95;2.40;;;;;;;-150.27;100.00;61272.81;5054112;29;20029;-78
2023/04/14 10:35:59;;;;;;;5.60;2.17;;;;;;;-150.27;100.00;61272.81;5053913;29;20031;-78
2023/04/14 10:38:42;;;;;;;7.00;2.00;;;;;;;-150.27;100.00;61272.81;5053619;29;20033;-77
2023/04/14 10:41:13;;;;;;;5.38;1.92;;;;;;;-150.27;100.00;61272.81;5054261;29;20033;-76
2023/04/14 10:43:45;;;;;;;6.38;1.73;;;;;;;-150.27;100.00;61272.81;5054277;29;20033;-76
2023/04/14 10:46:17;;;;;;;5.50;1.70;;;;;;;-150.27;100.00;61272.81;5053626;29;20029;-77
2023/04/14 10:48:48;;;;;;;5.32;2.00;;;;;;;-150.27;100.00;61272.81;5052461;29;20048;-77
2023/04/14 10:51:20;;;;;;;6.18;2.60;;;;;;;-150.27;100.00;61272.81;5034831;29;20052;-78
2023/04/14 10:53:54;;;;;;;6.38;2.03;;;;;;;-150.27;100.00;61272.81;5052703;29;20169;-76
2023/04/14 10:56:25;;;;;;;4.65;2.42;;;;;;;-150.27;100.00;61272.81;5052503;29;20025;-77
2023/04/14 10:58:57;;;;;;;6.43;1.73;;;;;;;-150.27;100.00;61272.81;5052857;29;20021;-78
2023/04/14 11:01:30;;;;;;;5.00;1.90;;;;;;;-150.27;100.00;61272.81;5052409;29;20112;-78
2023/04/14 11:04:31;;;;;;;3.03;1.40;;;;;;;-150.27;100.00;61272.81;5052997;29;20033;-76
2023/04/14 11:07:07;;;;;;;5.55;2.33;;;;;;;-150.27;100.00;61272.81;5036493;29;20037;-77
2023/04/14 11:09:40;;;;;;;8.07;1.95;;;;;;;-150.27;100.00;61272.81;5052140;29;20560;-77
2023/04/14 11:12:26;;;;;;;10.25;2.42;;;;;;;-150.27;100.00;61272.81;5052060;29;20037;-77
2023/04/14 11:15:02;;;;;;;5.90;1.85;;;;;;;-150.27;100.00;61272.81;5053245;29;20089;-77
2023/04/14 11:17:38;;;;;;;6.22;1.70;;;;;;;-150.27;100.00;61272.81;5052120;29;20041;-77
2023/04/14 11:20:20;;;;;;;6.68;1.88;;;;;;;-150.27;100.00;61272.81;5050539;29;20029;-77
2023/04/14 11:22:52;;;;;;;6.25;1.65;;;;;;;-150.27;100.00;61272.81;5051531;29;20036;-76
2023/04/14 11:25:24;;;;;;;4.43;1.70;;;;;;;-150.27;100.00;61272.81;5035063;29;20033;-76
2023/04/14 11:28:01;;;;;;;6.63;1.67;;;;;;;-150.27;100.00;61272.81;5045859;29;20033;-77
2023/04/14 11:30:32;;;;;;;11.23;2.00;;;;;;;-150.27;100.00;61272.81;5035118;29;20036;-77
2023/04/14 11:33:03;;;;;;;5.17;1.57;;;;;;;-150.27;100.00;61272.81;5051813;29;20037;-77
2023/04/14 11:35:35;;;;;;;4.37;1.57;;;;;;;-150.27;100.00;61272.81;5050647;29;20045;-76